createdAt,value
2022-10-30T00:00:25.826Z,63.36
2022-10-30T00:02:52.862Z,64.81
2022-10-30T00:05:20.945Z,64.46
2022-10-30T00:07:48.707Z,63.32
2022-10-30T00:10:16.785Z,63.08
2022-10-30T00:12:44.320Z,62.15
2022-10-30T00:15:11.973Z,62.17
2022-10-30T00:17:39.062Z,62.90
2022-10-30T00:20:06.537Z,62.66
2022-10-30T00:22:35.851Z,61.56
2022-10-30T00:25:03.937Z,61.37
2022-10-30T00:27:30.937Z,61.28
2022-10-30T00:29:57.807Z,62.00
2022-10-30T00:32:25.120Z,62.44
2022-10-30T00:34:52.148Z,61.57
2022-10-30T00:37:19.149Z,62.53
2022-10-30T00:39:46.083Z,62.65
2022-10-30T00:42:16.765Z,61.78
2022-10-30T00:44:49.716Z,62.46
2022-10-30T00:47:38.116Z,62.41
2022-10-30T00:53:05.205Z,62.67
2022-10-30T00:55:44.067Z,62.31
2022-10-30T00:58:16.144Z,62.42
2022-10-30T01:00:45.358Z,63.33
2022-10-30T01:03:12.282Z,63.09
2022-10-30T01:05:39.534Z,63.34
2022-10-30T01:08:06.496Z,64.43
2022-10-30T01:10:33.638Z,63.91
2022-10-30T01:13:02.086Z,62.91
2022-10-30T01:15:35.830Z,62.97
2022-10-30T01:18:15.979Z,62.89
2022-10-30T01:21:09.191Z,62.69
2022-10-30T01:23:54.629Z,61.09
2022-10-30T01:26:39.902Z,61.10
2022-10-30T01:29:30.796Z,60.23
2022-10-30T01:32:04.025Z,59.79
2022-10-30T01:34:55.348Z,60.85
2022-10-30T01:37:48.084Z,60.31
2022-10-30T01:40:17.593Z,62.12
2022-10-30T01:42:49.185Z,62.79
2022-10-30T01:45:34.743Z,63.06
2022-10-30T01:48:45.439Z,62.24
2022-10-30T01:51:12.426Z,62.32
2022-10-30T01:54:01.682Z,64.11
2022-10-30T01:56:40.027Z,64.29
2022-10-30T01:59:11.402Z,64.19
2022-10-30T02:01:40.069Z,64.69
2022-10-30T02:04:09.243Z,64.14
2022-10-30T02:06:38.084Z,64.67
2022-10-30T02:09:05.503Z,64.42
2022-10-30T02:11:33.980Z,63.78
2022-10-30T02:14:04.867Z,64.35
2022-10-30T02:16:37.555Z,64.28
2022-10-30T02:19:04.604Z,62.66
2022-10-30T02:21:31.723Z,62.05
2022-10-30T02:23:58.613Z,61.07
2022-10-30T02:26:25.488Z,62.09
2022-10-30T02:28:52.444Z,62.77
2022-10-30T02:31:19.523Z,62.83
2022-10-30T02:33:47.480Z,62.88
2022-10-30T02:36:15.657Z,63.11
2022-10-30T02:38:43.653Z,63.63
2022-10-30T02:41:11.469Z,63.17
2022-10-30T02:43:39.088Z,63.45
2022-10-30T02:46:06.012Z,64.68
2022-10-30T02:48:33.739Z,64.51
2022-10-30T02:51:01.567Z,64.80
2022-10-30T02:53:30.056Z,65.44
2022-10-30T02:56:03.422Z,64.60
2022-10-30T02:58:30.646Z,65.26
2022-10-30T03:00:57.542Z,65.02
2022-10-30T03:03:24.493Z,64.62
2022-10-30T03:05:51.260Z,63.92
2022-10-30T03:08:18.265Z,63.00
2022-10-30T03:10:45.185Z,62.65
2022-10-30T03:13:11.949Z,61.98
2022-10-30T03:15:38.829Z,62.17
2022-10-30T03:18:06.008Z,63.47
2022-10-30T03:20:38.969Z,64.44
2022-10-30T03:23:05.918Z,64.03
2022-10-30T03:25:32.678Z,64.36
2022-10-30T03:28:00.411Z,65.68
2022-10-30T03:30:27.674Z,65.90
2022-10-30T03:32:54.524Z,63.99
2022-10-30T03:35:21.789Z,64.40
2022-10-30T03:37:48.610Z,66.13
2022-10-30T03:40:15.550Z,65.66
2022-10-30T03:42:42.465Z,65.06
2022-10-30T03:45:09.725Z,64.15
2022-10-30T03:47:40.120Z,63.32
2022-10-30T03:50:09.227Z,63.74
2022-10-30T03:52:36.120Z,63.88
2022-10-30T03:55:02.884Z,64.67
2022-10-30T03:57:29.837Z,65.31
2022-10-30T04:00:11.977Z,64.22
2022-10-30T04:02:51.888Z,64.34
2022-10-30T04:05:21.539Z,64.58
2022-10-30T04:07:49.649Z,63.22
2022-10-30T04:10:20.949Z,63.34
2022-10-30T04:12:52.949Z,63.13
2022-10-30T04:15:19.829Z,63.82
2022-10-30T04:17:51.599Z,62.70
2022-10-30T04:20:20.056Z,62.84
2022-10-30T04:22:47.585Z,63.09
2022-10-30T04:25:19.324Z,62.81
2022-10-30T04:27:49.599Z,62.98
2022-10-30T04:30:20.173Z,62.54
2022-10-30T04:32:49.244Z,62.98
2022-10-30T04:35:20.088Z,62.80
2022-10-30T04:37:57.674Z,62.63
2022-10-30T04:40:27.670Z,62.79
2022-10-30T04:43:00.135Z,63.91
2022-10-30T04:45:27.577Z,65.41
2022-10-30T04:48:02.165Z,63.13
2022-10-30T04:50:32.477Z,63.54
2022-10-30T04:53:08.050Z,63.99
2022-10-30T04:55:35.390Z,62.70
2022-10-30T04:58:03.180Z,62.57
2022-10-30T05:00:33.110Z,61.50
2022-10-30T05:03:18.299Z,61.17
2022-10-30T05:05:46.004Z,60.89
2022-10-30T05:08:12.790Z,60.20
2022-10-30T05:10:42.738Z,59.26
2022-10-30T05:13:11.595Z,57.86
2022-10-30T05:15:38.527Z,56.67
2022-10-30T05:18:05.481Z,55.19
2022-10-30T05:20:32.727Z,54.99
2022-10-30T05:23:00.336Z,54.09
2022-10-30T05:25:28.163Z,54.67
2022-10-30T05:27:59.767Z,54.36
2022-10-30T05:30:31.550Z,54.32
2022-10-30T05:33:01.632Z,54.87
2022-10-30T05:35:29.989Z,53.95
2022-10-30T05:37:58.097Z,54.07
2022-10-30T05:40:25.249Z,54.48
2022-10-30T05:42:52.726Z,53.68
2022-10-30T05:45:20.784Z,53.74
2022-10-30T05:48:03.065Z,54.01
2022-10-30T05:50:34.341Z,54.42
2022-10-30T05:53:14.543Z,55.08
2022-10-30T05:55:41.460Z,55.33
2022-10-30T05:58:16.871Z,55.29
2022-10-30T06:00:45.674Z,55.15
2022-10-30T06:03:17.750Z,55.60
2022-10-30T06:05:46.851Z,55.00
2022-10-30T06:08:17.836Z,54.53
2022-10-30T06:10:46.417Z,53.41
2022-10-30T06:13:16.218Z,52.51
2022-10-30T06:15:51.080Z,50.95
2022-10-30T06:18:19.361Z,51.33
2022-10-30T06:20:48.997Z,50.56
2022-10-30T06:23:43.792Z,51.60
2022-10-30T06:26:39.768Z,51.96
2022-10-30T06:29:10.595Z,51.60
2022-10-30T06:31:37.612Z,52.78
2022-10-30T06:34:05.506Z,51.19
2022-10-30T06:36:34.505Z,50.38
2022-10-30T06:39:01.502Z,50.04
2022-10-30T06:41:35.552Z,49.77
2022-10-30T06:44:16.333Z,48.77
2022-10-30T06:46:43.228Z,49.66
2022-10-30T06:49:10.072Z,48.66
2022-10-30T06:51:39.044Z,48.29
2022-10-30T06:54:05.929Z,48.49
2022-10-30T06:56:38.882Z,47.80
2022-10-30T06:59:12.488Z,47.54
2022-10-30T07:01:45.779Z,46.19
2022-10-30T07:04:16.028Z,46.20
2022-10-30T07:06:43.982Z,46.11
2022-10-30T07:09:11.065Z,45.98
2022-10-30T07:11:40.241Z,45.91
2022-10-30T07:14:25.675Z,46.60
2022-10-30T07:17:11.577Z,46.17
2022-10-30T07:19:40.186Z,45.39
2022-10-30T07:22:07.023Z,46.01
2022-10-30T07:24:35.240Z,44.74
2022-10-30T07:27:13.900Z,44.79
2022-10-30T07:29:45.028Z,44.09
2022-10-30T07:32:21.019Z,43.74
2022-10-30T07:35:07.240Z,43.67
2022-10-30T07:37:54.452Z,44.12
2022-10-30T07:40:29.364Z,43.34
2022-10-30T07:43:06.468Z,42.14
2022-10-30T07:45:33.891Z,42.98
2022-10-30T07:48:23.831Z,41.73
2022-10-30T07:51:04.436Z,41.66
2022-10-30T07:53:31.964Z,42.64
2022-10-30T07:55:59.412Z,42.86
2022-10-30T07:58:45.800Z,41.72
2022-10-30T08:01:31.155Z,41.91
2022-10-30T08:04:07.729Z,41.36
2022-10-30T08:06:34.669Z,41.09
2022-10-30T08:09:02.543Z,41.14
2022-10-30T08:11:30.721Z,40.87
2022-10-30T08:13:59.523Z,41.22
2022-10-30T08:16:26.500Z,41.11
2022-10-30T08:18:53.793Z,41.05
2022-10-30T08:21:24.122Z,39.96
2022-10-30T08:23:59.755Z,39.93
2022-10-30T08:26:29.830Z,40.16
2022-10-30T08:28:56.974Z,39.93
2022-10-30T08:31:25.608Z,40.47
2022-10-30T08:34:01.341Z,40.81
2022-10-30T08:36:34.195Z,40.47
2022-10-30T08:39:04.147Z,39.55
2022-10-30T08:41:58.142Z,39.85
2022-10-30T08:44:26.572Z,39.02
2022-10-30T08:47:13.631Z,39.72
2022-10-30T08:49:40.753Z,39.37
2022-10-30T08:52:10.870Z,39.99
2022-10-30T08:54:39.143Z,39.99
2022-10-30T08:57:05.978Z,40.53
2022-10-30T08:59:32.827Z,40.29
2022-10-30T09:02:00.378Z,40.03
2022-10-30T09:04:47.534Z,39.90
2022-10-30T09:07:44.140Z,40.06
2022-10-30T09:10:30.141Z,40.17
2022-10-30T09:12:58.514Z,39.86
2022-10-30T09:15:26.617Z,39.35
2022-10-30T09:18:00.767Z,38.55
2022-10-30T09:20:28.935Z,39.11
2022-10-30T09:22:56.173Z,38.37
2022-10-30T09:25:23.447Z,39.09
2022-10-30T09:28:00.513Z,40.30
2022-10-30T09:30:41.113Z,39.35
2022-10-30T09:33:09.585Z,39.43
2022-10-30T09:35:54.540Z,38.19
2022-10-30T09:38:21.527Z,38.25
2022-10-30T09:41:00.763Z,37.25
2022-10-30T09:43:52.782Z,37.20
2022-10-30T09:46:26.034Z,36.88
2022-10-30T09:49:06.241Z,35.63
2022-10-30T09:51:45.521Z,35.12
2022-10-30T09:54:26.029Z,35.23
2022-10-30T09:57:15.450Z,36.19
2022-10-30T10:00:00.174Z,37.89
2022-10-30T10:02:54.914Z,35.87
2022-10-30T10:05:28.404Z,36.89
2022-10-30T10:08:22.545Z,36.30
2022-10-30T10:11:27.561Z,36.59
2022-10-30T10:14:01.936Z,35.84
2022-10-30T10:16:36.693Z,35.27
2022-10-30T10:19:15.290Z,35.34
2022-10-30T10:22:06.995Z,34.72
2022-10-30T10:24:38.990Z,34.41
2022-10-30T10:27:43.108Z,33.97
2022-10-30T10:30:21.435Z,33.44
2022-10-30T10:36:13.652Z,32.80
2022-10-30T10:39:12.517Z,33.09
2022-10-30T10:41:58.476Z,31.19
2022-10-30T10:44:39.242Z,30.84
2022-10-30T10:47:07.352Z,30.07
2022-10-30T10:49:59.501Z,30.29
2022-10-30T10:52:41.915Z,31.54
2022-10-30T10:55:19.045Z,30.73
2022-10-30T10:57:48.207Z,29.93
2022-10-30T11:00:23.626Z,29.81
2022-10-30T11:03:13.904Z,29.95
2022-10-30T11:05:51.566Z,29.81
2022-10-30T11:08:26.769Z,29.30
2022-10-30T11:10:59.203Z,29.50
2022-10-30T11:13:31.755Z,29.07
2022-10-30T11:16:18.459Z,29.24
2022-10-30T11:18:48.560Z,29.72
2022-10-30T11:21:23.320Z,29.97
2022-10-30T11:23:50.922Z,29.19
2022-10-30T11:26:17.688Z,28.94
2022-10-30T11:29:12.139Z,29.48
2022-10-30T11:31:43.646Z,29.18
2022-10-30T11:34:19.434Z,29.74
2022-10-30T11:36:47.982Z,29.86
2022-10-30T11:39:18.674Z,29.76
2022-10-30T11:42:07.211Z,30.22
2022-10-30T11:44:38.232Z,29.80
2022-10-30T11:47:07.712Z,30.08
2022-10-30T11:49:57.083Z,29.90
2022-10-30T11:52:26.447Z,29.47
2022-10-30T11:54:57.092Z,29.25
2022-10-30T11:57:37.835Z,28.94
2022-10-30T12:00:14.529Z,29.12
2022-10-30T12:02:44.393Z,29.38
2022-10-30T12:05:26.238Z,28.63
2022-10-30T12:08:22.651Z,28.43
2022-10-30T12:11:05.715Z,28.38
2022-10-30T12:13:39.074Z,28.21
2022-10-30T12:16:09.825Z,28.24
2022-10-30T12:18:37.314Z,28.33
2022-10-30T12:21:04.569Z,27.60
2022-10-30T12:23:32.528Z,27.78
2022-10-30T12:26:02.173Z,27.03
2022-10-30T12:28:31.662Z,27.27
2022-10-30T12:31:21.513Z,27.18
2022-10-30T12:36:48.221Z,27.37
2022-10-30T12:39:24.342Z,27.58
2022-10-30T12:42:02.011Z,28.62
2022-10-30T12:44:34.403Z,27.54
2022-10-30T12:47:08.643Z,27.20
2022-10-30T12:49:47.975Z,27.13
2022-10-30T12:52:52.370Z,27.47
2022-10-30T12:55:24.330Z,27.89
2022-10-30T12:58:23.947Z,27.96
2022-10-30T13:00:54.325Z,28.00
2022-10-30T13:03:30.679Z,27.44
2022-10-30T13:06:02.365Z,26.75
2022-10-30T13:08:36.585Z,27.53
2022-10-30T13:11:17.137Z,28.21
2022-10-30T13:13:49.584Z,27.12
2022-10-30T13:16:22.298Z,27.57
2022-10-30T13:18:57.982Z,27.25
2022-10-30T13:22:00.193Z,27.13
2022-10-30T13:25:02.585Z,26.98
2022-10-30T13:27:38.923Z,27.14
2022-10-30T13:30:36.647Z,27.69
2022-10-30T13:33:28.608Z,27.46
2022-10-30T13:36:09.323Z,27.03
2022-10-30T13:38:39.310Z,27.89
2022-10-30T13:41:39.881Z,27.01
2022-10-30T13:44:18.668Z,28.12
2022-10-30T13:47:36.601Z,28.21
2022-10-30T13:50:38.799Z,27.60
2022-10-30T13:53:13.200Z,28.49
2022-10-30T13:55:42.230Z,27.79
2022-10-30T13:58:36.992Z,27.82
2022-10-30T14:01:17.465Z,28.67
2022-10-30T14:03:59.218Z,29.13
2022-10-30T14:06:38.190Z,28.66
2022-10-30T14:09:15.763Z,27.94
2022-10-30T14:11:42.513Z,28.94
2022-10-30T14:14:28.391Z,28.71
2022-10-30T14:17:18.015Z,28.57
2022-10-30T14:20:14.332Z,31.16
2022-10-30T14:22:41.759Z,31.53
2022-10-30T14:25:16.060Z,31.41
2022-10-30T14:27:43.346Z,31.11
2022-10-30T14:30:19.599Z,30.24
2022-10-30T14:32:51.887Z,30.04
2022-10-30T14:35:37.054Z,30.63
2022-10-30T14:38:09.626Z,31.45
2022-10-30T14:40:44.015Z,32.13
2022-10-30T14:43:29.206Z,32.14
2022-10-30T14:46:20.085Z,36.11
2022-10-30T14:49:03.919Z,38.08
2022-10-30T14:51:56.294Z,37.50
2022-10-30T14:54:23.149Z,37.19
2022-10-30T14:56:53.064Z,37.39
2022-10-30T14:59:20.221Z,38.00
2022-10-30T15:02:15.249Z,37.72
2022-10-30T15:05:23.799Z,39.88
2022-10-30T15:07:56.327Z,39.73
2022-10-30T15:10:32.150Z,40.34
2022-10-30T15:13:20.324Z,39.85
2022-10-30T15:16:01.416Z,39.90
2022-10-30T15:18:30.729Z,39.76
2022-10-30T15:21:04.375Z,39.45
2022-10-30T15:23:36.737Z,39.71
2022-10-30T15:26:09.766Z,39.90
2022-10-30T15:28:39.033Z,40.38
2022-10-30T15:31:24.004Z,40.36
2022-10-30T15:33:51.228Z,40.89
2022-10-30T15:36:30.575Z,41.12
2022-10-30T15:39:04.549Z,41.51
2022-10-30T15:41:32.298Z,40.51
2022-10-30T15:43:59.217Z,40.78
2022-10-30T15:46:26.735Z,40.91
2022-10-30T15:48:53.587Z,40.01
2022-10-30T15:51:23.365Z,40.59
2022-10-30T15:53:54.832Z,40.72
2022-10-30T15:57:08.090Z,41.45
2022-10-30T15:59:30.631Z,40.68
2022-10-30T16:01:59.017Z,41.71
2022-10-30T16:04:31.343Z,41.43
2022-10-30T16:07:17.749Z,40.32
2022-10-30T16:09:54.017Z,41.21
2022-10-30T16:12:21.356Z,41.49
2022-10-30T16:14:48.249Z,41.45
2022-10-30T16:17:15.295Z,41.19
2022-10-30T16:19:48.332Z,42.95
2022-10-30T16:22:21.511Z,42.50
2022-10-30T16:24:48.512Z,42.40
2022-10-30T16:27:18.669Z,42.54
2022-10-30T16:29:58.315Z,43.88
2022-10-30T16:32:30.609Z,43.31
2022-10-30T16:34:58.774Z,43.34
2022-10-30T16:37:32.382Z,43.62
2022-10-30T16:40:05.134Z,44.79
2022-10-30T16:42:33.725Z,44.59
2022-10-30T16:45:12.635Z,45.07
2022-10-30T16:47:44.734Z,45.04
2022-10-30T16:50:16.009Z,45.27
2022-10-30T16:52:43.573Z,45.16
2022-10-30T16:55:21.804Z,46.56
2022-10-30T16:57:57.384Z,46.32
2022-10-30T17:00:28.441Z,45.71
2022-10-30T17:02:58.694Z,45.41
2022-10-30T17:05:30.865Z,45.74
2022-10-30T17:08:00.882Z,45.84
2022-10-30T17:10:35.605Z,45.62
2022-10-30T17:13:31.190Z,45.56
2022-10-30T17:15:59.520Z,46.27
2022-10-30T17:18:33.297Z,46.43
2022-10-30T17:21:10.806Z,47.14
2022-10-30T17:23:45.227Z,47.34
2022-10-30T17:26:12.965Z,47.16
2022-10-30T17:28:40.783Z,47.72
2022-10-30T17:31:35.656Z,46.60
2022-10-30T17:34:20.158Z,45.34
2022-10-30T17:36:48.729Z,45.67
2022-10-30T17:39:16.140Z,46.46
2022-10-30T17:41:44.121Z,46.51
2022-10-30T17:44:19.929Z,47.02
2022-10-30T17:46:47.218Z,47.53
2022-10-30T17:49:40.286Z,47.55
2022-10-30T17:52:07.105Z,49.03
2022-10-30T17:54:34.794Z,48.51
2022-10-30T17:57:01.608Z,48.25
2022-10-30T17:59:28.444Z,49.20
2022-10-30T18:01:55.470Z,49.70
2022-10-30T18:04:22.378Z,49.81
2022-10-30T18:06:49.490Z,48.30
2022-10-30T18:09:16.408Z,48.55
2022-10-30T18:11:43.287Z,48.86
2022-10-30T18:14:11.645Z,49.25
2022-10-30T18:16:39.057Z,49.28
2022-10-30T18:19:10.867Z,48.63
2022-10-30T18:21:37.966Z,47.98
2022-10-30T18:24:11.448Z,47.42
2022-10-30T18:26:40.700Z,47.64
2022-10-30T18:29:09.187Z,47.38
2022-10-30T18:31:36.065Z,47.35
2022-10-30T18:34:03.051Z,47.46
2022-10-30T18:36:30.241Z,46.46
2022-10-30T18:38:58.265Z,47.20
2022-10-30T18:41:29.680Z,46.71
2022-10-30T18:43:56.530Z,46.75
2022-10-30T18:46:24.233Z,46.95
2022-10-30T18:48:51.097Z,46.81
2022-10-30T18:51:21.726Z,46.42
2022-10-30T18:53:52.075Z,47.70
2022-10-30T18:56:27.399Z,48.26
2022-10-30T18:58:58.768Z,48.09
2022-10-30T19:01:32.230Z,46.31
2022-10-30T19:04:04.008Z,45.86
2022-10-30T19:06:32.903Z,45.30
2022-10-30T19:08:59.756Z,45.67
2022-10-30T19:11:28.226Z,45.58
2022-10-30T19:13:57.167Z,46.68
2022-10-30T19:16:26.965Z,45.81
2022-10-30T19:18:53.996Z,46.79
2022-10-30T19:21:23.182Z,46.22
2022-10-30T19:23:50.261Z,46.42
2022-10-30T19:26:17.733Z,46.01
2022-10-30T19:28:45.875Z,46.16
2022-10-30T19:31:18.589Z,46.54
2022-10-30T19:33:46.491Z,46.28
2022-10-30T19:36:36.578Z,46.52
2022-10-30T19:39:21.532Z,46.00
2022-10-30T19:41:48.511Z,46.34
2022-10-30T19:44:15.347Z,45.99
2022-10-30T19:46:42.139Z,45.70
2022-10-30T19:49:19.908Z,46.60
2022-10-30T19:51:47.397Z,46.50
2022-10-30T19:54:14.317Z,46.47
2022-10-30T19:56:43.532Z,46.13
2022-10-30T19:59:13.520Z,46.29
2022-10-30T20:01:41.824Z,45.93
2022-10-30T20:04:09.003Z,46.11
2022-10-30T20:06:36.025Z,46.42
2022-10-30T20:09:03.125Z,46.82
2022-10-30T20:11:31.946Z,47.39
2022-10-30T20:13:58.726Z,47.59
2022-10-30T20:16:25.565Z,48.01
2022-10-30T20:18:52.427Z,49.54
2022-10-30T20:21:19.559Z,48.76
2022-10-30T20:23:46.903Z,49.72
2022-10-30T20:26:27.394Z,49.39
2022-10-30T20:28:55.165Z,49.43
2022-10-30T20:31:22.234Z,49.05
2022-10-30T20:33:49.066Z,50.11
2022-10-30T20:36:16.071Z,50.65
2022-10-30T20:38:43.017Z,50.49
2022-10-30T20:41:23.515Z,49.72
2022-10-30T20:43:51.044Z,50.21
2022-10-30T20:46:18.411Z,50.08
2022-10-30T20:48:45.336Z,50.33
2022-10-30T20:51:12.431Z,50.33
2022-10-30T20:53:39.479Z,49.95
2022-10-30T20:56:06.603Z,50.64
2022-10-30T20:58:33.527Z,51.13
2022-10-30T21:01:00.388Z,50.98
2022-10-30T21:03:27.799Z,50.86
2022-10-30T21:06:00.252Z,50.18
2022-10-30T21:08:29.021Z,50.59
2022-10-30T21:11:04.053Z,51.43
2022-10-30T21:13:33.428Z,50.64
2022-10-30T21:16:02.521Z,50.70
2022-10-30T21:18:29.538Z,51.28
2022-10-30T21:21:08.550Z,50.99
2022-10-30T21:23:35.368Z,52.39
2022-10-30T21:26:04.372Z,51.84
2022-10-30T21:28:31.276Z,50.94
2022-10-30T21:31:07.266Z,51.31
2022-10-30T21:33:35.758Z,51.48
2022-10-30T21:36:12.975Z,52.30
2022-10-30T21:38:42.215Z,50.31
2022-10-30T21:41:11.147Z,49.68
2022-10-30T21:43:38.018Z,49.85
2022-10-30T21:46:12.696Z,50.40
2022-10-30T21:48:39.966Z,50.73
2022-10-30T21:51:09.146Z,49.99
2022-10-30T21:53:36.615Z,49.66
2022-10-30T21:56:05.825Z,50.17
2022-10-30T21:58:33.026Z,49.95
2022-10-30T22:00:59.872Z,49.75
2022-10-30T22:03:26.750Z,49.31
2022-10-30T22:05:53.842Z,49.08
2022-10-30T22:08:21.360Z,49.16
2022-10-30T22:10:48.202Z,49.81
2022-10-30T22:13:15.611Z,50.38
2022-10-30T22:15:42.463Z,51.65
2022-10-30T22:18:09.497Z,52.00
2022-10-30T22:20:36.286Z,51.57
2022-10-30T22:23:03.058Z,51.98
2022-10-30T22:25:29.859Z,51.68
2022-10-30T22:27:56.916Z,51.83
2022-10-30T22:30:23.825Z,51.34
2022-10-30T22:32:51.684Z,52.91
2022-10-30T22:35:18.579Z,51.87
2022-10-30T22:37:45.442Z,51.97
2022-10-30T22:40:12.334Z,52.28
2022-10-30T22:42:39.109Z,53.30
2022-10-30T22:45:06.425Z,53.35
2022-10-30T22:47:33.303Z,52.45
2022-10-30T22:50:00.324Z,52.39
2022-10-30T22:52:27.176Z,52.58
2022-10-30T22:54:54.060Z,51.67
2022-10-30T22:57:20.863Z,51.71
2022-10-30T22:59:47.659Z,51.45
2022-10-30T23:02:14.430Z,51.87
2022-10-30T23:04:41.646Z,51.68
2022-10-30T23:07:08.421Z,52.32
2022-10-30T23:09:35.221Z,51.65
2022-10-30T23:12:02.033Z,52.21
2022-10-30T23:14:28.938Z,52.44
2022-10-30T23:16:55.781Z,54.10
2022-10-30T23:19:22.666Z,53.90
2022-10-30T23:21:49.493Z,54.15
2022-10-30T23:24:16.380Z,53.68
2022-10-30T23:26:43.173Z,54.16
2022-10-30T23:29:10.114Z,54.22
2022-10-30T23:31:39.476Z,54.84
2022-10-30T23:34:11.112Z,54.84
2022-10-30T23:36:38.592Z,55.04
2022-10-30T23:39:08.718Z,54.34
2022-10-30T23:41:35.821Z,53.88
2022-10-30T23:44:06.180Z,54.08
2022-10-30T23:46:35.203Z,55.21
2022-10-30T23:49:02.561Z,53.76
2022-10-30T23:51:29.694Z,54.58
2022-10-30T23:53:56.640Z,54.04
2022-10-30T23:56:24.285Z,53.99
2022-10-30T23:58:52.637Z,52.98
